Chelan, WA (98816)

8:48 PM PDT on August 01, 2015 (GMT -0700)
The Highlands | | Change Station
CLOSE
Current Station
Personal Weather Station
Location: Chelan, WA
Elevation: 1610 ft
Nearby Weather Stations

Elev 1610 ft 47.86 °N, 120.04 °W | Updated 7 minutes ago

Clear
Clear
88.2 °F
Feels Like 84 °F
N
1.0
Wind Variable Wind from NNW
Gusts 2.0 mph

Today
High -- | Low -- °F
--% Chance of Precip.
Yesterday
High -- | Low -- °F
Precip. -- in
5:36 AM 8:35 PM
Waning Gibbous, 96% visible
Pressure 29.75 in
Visibility 10.0 miles
Clouds Clear
Heat Index 84 °F
Dew Point 33 °F
Humidity 14%
Rainfall 0.00 in
Snow Depth Not available.
UV 0 out of 12
Pollen 5.90 out of 12
Air Quality Not available.
Flu Activity Not available.
METAR KEAT 020255Z AUTO 31011KT 10SM CLR 36/M06 A2979 RMK AO2 SLP075 T03611056 55002

More Conditions Fewer Conditions

Pressure 29.75 in
Visibility 10.0 miles
Clouds Clear
Heat Index 84 °F
Dew Point 33 °F
Humidity 14%
Rainfall 0.00 in
Snow Depth Not available.
UV 0 out of 12
Pollen 5.90 out of 12
Air Quality Not available.
Flu Activity Not available.
METAR KEAT 020255Z AUTO 31011KT 10SM CLR 36/M06 A2979 RMK AO2 SLP075 T03611056 55002

More Conditions Fewer Conditions

10-Day Weather Forecast

×

Almanac

Astronomy

Aug. 01, 2015 Rise Set
Actual Time
Civil Twilight
Nautical Twilight
Astronomical Twilight
Moon
Length of Visible Light
Length of Day
Tomorrow will be .
, % of the Moon is Illuminated

Today's Extremes

State Highs State Lows

Community

WunderPhotos

Upload Photos

1,843,167 photos uploaded!

WunderBlogs® & News

Nearby

Air Quality

  Air Quality AQ Index Pollutant
Not available.

Snow Depth

Station Depth Elevation

Earthquake Activity

City Distance Mag. Time & Date
Minimum magnitude displayed is 2.5.

Coastal Water Temperatures

Place Temperature

Stations

Nearby Weather Stations

Station Location Temp. Windchill Dew Point Humidity Wind Precip. Elev Updated Type